createdAt,value
2022-10-03T00:00:11.616Z,65.40
2022-10-03T00:02:48.790Z,64.69
2022-10-03T00:06:12.069Z,64.90
2022-10-03T00:08:57.814Z,66.23
2022-10-03T00:11:47.065Z,67.16
2022-10-03T00:14:35.234Z,66.25
2022-10-03T00:17:42.649Z,65.07
2022-10-03T00:20:35.390Z,65.42
2022-10-03T00:23:12.602Z,65.74
2022-10-03T00:26:00.546Z,66.25
2022-10-03T00:28:50.616Z,67.25
2022-10-03T00:31:55.675Z,66.88
2022-10-03T00:34:39.716Z,65.62
2022-10-03T00:37:19.304Z,65.61
2022-10-03T00:40:20.407Z,66.36
2022-10-03T00:43:06.233Z,66.71
2022-10-03T00:46:11.315Z,67.98
2022-10-03T00:48:49.883Z,67.15
2022-10-03T00:52:28.701Z,66.11
2022-10-03T00:56:10.322Z,66.05
2022-10-03T00:59:48.599Z,67.67
2022-10-03T01:02:44.070Z,68.42
2022-10-03T01:05:18.481Z,67.60
2022-10-03T01:08:25.059Z,66.47
2022-10-03T01:11:18.165Z,66.23
2022-10-03T01:13:57.787Z,67.15
2022-10-03T01:17:10.744Z,67.55
2022-10-03T01:20:08.960Z,68.43
2022-10-03T01:22:55.424Z,67.67
2022-10-03T01:25:25.990Z,66.15
2022-10-03T01:28:49.466Z,66.03
2022-10-03T01:31:19.210Z,66.72
2022-10-03T01:33:51.141Z,67.49
2022-10-03T01:36:52.872Z,68.59
2022-10-03T01:40:09.029Z,67.46
2022-10-03T01:42:58.252Z,66.36
2022-10-03T01:45:55.600Z,66.43
2022-10-03T01:48:26.500Z,67.02
2022-10-03T01:51:08.991Z,67.21
2022-10-03T01:53:42.890Z,68.17
2022-10-03T01:56:30.090Z,67.92
2022-10-03T01:59:18.083Z,66.29
2022-10-03T02:02:00.484Z,66.09
2022-10-03T02:04:48.228Z,66.51
2022-10-03T02:07:41.049Z,67.14
2022-10-03T02:10:20.879Z,68.62
2022-10-03T02:13:18.334Z,67.67
2022-10-03T02:16:11.349Z,66.27
2022-10-03T02:18:52.188Z,66.11
2022-10-03T02:21:21.669Z,66.83
2022-10-03T02:23:50.789Z,67.55
2022-10-03T02:26:21.162Z,68.59
2022-10-03T02:28:55.790Z,68.43
2022-10-03T02:31:26.226Z,66.72
2022-10-03T02:34:39.531Z,66.32
2022-10-03T02:37:38.747Z,66.57
2022-10-03T02:40:27.536Z,67.21
2022-10-03T02:43:28.997Z,68.33
2022-10-03T02:46:21.258Z,67.63
2022-10-03T02:49:10.268Z,66.20
2022-10-03T02:52:04.314Z,66.08
2022-10-03T02:54:50.650Z,66.65
2022-10-03T02:57:45.330Z,67.34
2022-10-03T03:00:18.206Z,68.38
2022-10-03T03:04:07.707Z,68.29
2022-10-03T03:08:24.835Z,65.77
2022-10-03T03:12:41.353Z,66.46
2022-10-03T03:16:58.985Z,67.32
2022-10-03T03:21:12.876Z,68.33
2022-10-03T03:25:25.640Z,66.42
2022-10-03T03:29:35.840Z,66.89
2022-10-03T03:33:49.908Z,67.67
2022-10-03T03:37:53.119Z,68.75
2022-10-03T03:42:07.315Z,66.66
2022-10-03T03:46:17.695Z,66.60
2022-10-03T03:50:49.993Z,68.00
2022-10-03T03:54:41.186Z,68.79
2022-10-03T03:57:43.693Z,66.92
2022-10-03T04:01:12.063Z,66.34
2022-10-03T04:04:57.361Z,67.04
2022-10-03T04:09:02.440Z,68.25
2022-10-03T04:13:08.660Z,68.98
2022-10-03T04:17:08.084Z,66.75
2022-10-03T04:21:07.844Z,66.54
2022-10-03T04:25:21.312Z,67.51
2022-10-03T04:29:18.585Z,68.84
2022-10-03T04:33:14.778Z,67.18
2022-10-03T04:36:32.293Z,67.29
2022-10-03T04:39:40.900Z,67.87
2022-10-03T04:43:17.949Z,68.69
2022-10-03T04:47:23.948Z,69.06
2022-10-03T04:50:46.901Z,66.93
2022-10-03T04:53:55.124Z,66.38
2022-10-03T04:57:06.614Z,66.69
2022-10-03T05:01:36.385Z,67.91
2022-10-03T05:05:20.880Z,68.84
2022-10-03T05:08:56.191Z,66.67
2022-10-03T05:12:33.030Z,66.20
2022-10-03T05:16:28.385Z,66.75
2022-10-03T05:20:00.787Z,68.20
2022-10-03T05:23:51.316Z,68.65
2022-10-03T05:26:45.777Z,66.71
2022-10-03T05:29:32.201Z,65.96
2022-10-03T05:33:08.378Z,65.93
2022-10-03T05:36:12.202Z,66.50
2022-10-03T05:39:03.623Z,65.88
2022-10-03T05:42:49.327Z,63.41
2022-10-03T05:46:29.344Z,60.23
2022-10-03T05:50:10.477Z,60.87
2022-10-03T05:53:20.490Z,62.92
2022-10-03T05:56:52.961Z,63.34
2022-10-03T06:00:28.303Z,63.56
2022-10-03T06:03:14.455Z,58.49
2022-10-03T06:06:37.970Z,57.62
2022-10-03T06:09:40.969Z,57.76
2022-10-03T06:13:12.967Z,58.36
2022-10-03T06:16:38.863Z,59.49
2022-10-03T06:20:38.672Z,60.09
2022-10-03T06:24:08.012Z,61.01
2022-10-03T06:27:37.097Z,62.77
2022-10-03T06:31:31.160Z,61.55
2022-10-03T06:34:40.062Z,60.11
2022-10-03T06:38:48.113Z,61.01
2022-10-03T06:42:43.152Z,62.21
2022-10-03T06:46:40.334Z,64.41
2022-10-03T06:50:32.689Z,65.01
2022-10-03T06:54:19.621Z,63.06
2022-10-03T06:58:11.380Z,63.09
2022-10-03T07:02:31.602Z,64.02
2022-10-03T07:06:40.184Z,65.77
2022-10-03T07:10:57.196Z,66.75
2022-10-03T07:15:01.346Z,64.52
2022-10-03T07:18:52.871Z,64.52
2022-10-03T07:23:07.258Z,65.14
2022-10-03T07:27:05.350Z,66.23
2022-10-03T07:30:44.546Z,67.13
2022-10-03T07:34:47.697Z,65.12
2022-10-03T07:39:02.688Z,64.79
2022-10-03T07:43:06.311Z,65.51
2022-10-03T07:47:19.115Z,66.51
2022-10-03T07:50:46.056Z,68.03
2022-10-03T07:54:17.935Z,64.34
2022-10-03T07:58:31.925Z,63.05
2022-10-03T08:02:37.946Z,64.40
2022-10-03T08:06:52.281Z,64.23
2022-10-03T08:10:59.177Z,63.41
2022-10-03T08:15:27.406Z,59.24
2022-10-03T08:19:43.357Z,59.24
2022-10-03T08:23:49.559Z,59.08
2022-10-03T08:28:09.234Z,59.96
2022-10-03T08:32:15.933Z,61.84
2022-10-03T08:36:22.077Z,64.27
2022-10-03T08:40:28.028Z,61.37
2022-10-03T08:44:36.460Z,60.96
2022-10-03T08:48:56.581Z,62.10
2022-10-03T08:53:22.980Z,63.38
2022-10-03T08:57:29.913Z,63.15
2022-10-03T09:01:54.461Z,59.81
2022-10-03T09:06:11.826Z,60.49
2022-10-03T09:09:57.009Z,59.33
2022-10-03T09:14:06.569Z,59.47
2022-10-03T09:18:12.632Z,59.28
2022-10-03T09:22:23.958Z,60.17
2022-10-03T09:26:24.375Z,59.41
2022-10-03T09:31:00.585Z,61.57
2022-10-03T09:34:56.758Z,62.55
2022-10-03T09:38:37.758Z,60.80
2022-10-03T09:43:05.232Z,61.32
2022-10-03T09:46:46.317Z,62.20
2022-10-03T09:50:25.119Z,63.80
2022-10-03T09:54:26.201Z,64.90
2022-10-03T09:58:52.599Z,63.05
2022-10-03T10:02:55.129Z,62.36
2022-10-03T10:07:05.047Z,62.93
2022-10-03T10:11:20.465Z,62.84
2022-10-03T10:15:37.485Z,64.23
2022-10-03T10:19:55.522Z,64.35
2022-10-03T10:23:35.673Z,61.06
2022-10-03T10:27:54.812Z,60.43
2022-10-03T10:32:21.889Z,61.31
2022-10-03T10:36:30.702Z,63.29
2022-10-03T10:40:29.151Z,64.39
2022-10-03T10:43:11.672Z,65.68
2022-10-03T10:45:57.758Z,64.33
2022-10-03T10:48:54.446Z,63.05
2022-10-03T10:51:49.254Z,63.06
2022-10-03T10:55:03.850Z,63.69
2022-10-03T10:58:04.766Z,64.61
2022-10-03T11:00:59.558Z,65.49
2022-10-03T11:03:59.786Z,66.72
2022-10-03T11:06:52.661Z,64.95
2022-10-03T11:09:40.577Z,63.33
2022-10-03T11:12:18.077Z,63.90
2022-10-03T11:15:11.104Z,64.16
2022-10-03T11:18:26.266Z,65.55
2022-10-03T11:21:31.326Z,66.16
2022-10-03T11:24:08.125Z,66.87
2022-10-03T11:27:00.561Z,65.90
2022-10-03T11:30:19.211Z,64.14
2022-10-03T11:33:22.160Z,64.14
2022-10-03T11:36:44.817Z,64.93
2022-10-03T11:39:55.157Z,66.26
2022-10-03T11:43:01.072Z,66.96
2022-10-03T11:45:42.953Z,65.37
2022-10-03T11:48:45.133Z,64.40
2022-10-03T11:51:42.918Z,64.84
2022-10-03T11:54:31.044Z,65.19
2022-10-03T11:57:26.737Z,66.22
2022-10-03T12:00:09.384Z,66.98
2022-10-03T12:02:51.893Z,66.59
2022-10-03T12:05:30.203Z,65.52
2022-10-03T12:08:36.663Z,64.74
2022-10-03T12:11:50.542Z,64.74
2022-10-03T12:14:40.761Z,65.47
2022-10-03T12:17:35.876Z,65.76
2022-10-03T12:20:24.345Z,66.70
2022-10-03T12:23:26.029Z,65.36
2022-10-03T12:25:56.489Z,64.11
2022-10-03T12:28:43.386Z,64.10
2022-10-03T12:31:17.060Z,64.64
2022-10-03T12:34:18.113Z,65.01
2022-10-03T12:37:24.393Z,65.81
2022-10-03T12:40:25.139Z,66.87
2022-10-03T12:43:21.631Z,65.86
2022-10-03T12:46:20.272Z,64.37
2022-10-03T12:48:59.717Z,64.37
2022-10-03T12:52:00.760Z,64.19
2022-10-03T12:54:44.606Z,65.24
2022-10-03T12:57:39.622Z,66.41
2022-10-03T13:00:27.724Z,65.08
2022-10-03T13:03:14.248Z,64.23
2022-10-03T13:06:07.332Z,64.12
2022-10-03T13:09:01.352Z,64.67
2022-10-03T13:11:50.705Z,65.68
2022-10-03T13:14:54.880Z,66.72
2022-10-03T13:17:40.680Z,65.42
2022-10-03T13:20:37.477Z,64.37
2022-10-03T13:23:12.150Z,64.45
2022-10-03T13:26:18.558Z,65.26
2022-10-03T13:29:25.264Z,66.09
2022-10-03T13:32:03.944Z,67.34
2022-10-03T13:34:55.469Z,66.30
2022-10-03T13:37:33.796Z,65.05
2022-10-03T13:40:38.709Z,65.71
2022-10-03T13:43:13.824Z,66.19
2022-10-03T13:45:47.170Z,66.75
2022-10-03T13:48:17.381Z,67.49
2022-10-03T13:51:07.707Z,66.89
2022-10-03T13:53:59.476Z,65.56
2022-10-03T13:57:09.574Z,65.11
2022-10-03T13:59:42.064Z,65.80
2022-10-03T14:02:17.998Z,66.87
2022-10-03T14:04:56.991Z,67.53
2022-10-03T14:07:49.361Z,67.94
2022-10-03T14:10:23.079Z,66.47
2022-10-03T14:13:16.986Z,64.99
2022-10-03T14:16:09.708Z,64.72
2022-10-03T14:18:57.949Z,65.36
2022-10-03T14:21:40.725Z,65.82
2022-10-03T14:24:30.139Z,66.78
2022-10-03T14:27:19.063Z,66.21
2022-10-03T14:30:15.427Z,64.70
2022-10-03T14:33:00.785Z,64.38
2022-10-03T14:36:15.705Z,64.76
2022-10-03T14:39:18.727Z,65.75
2022-10-03T14:41:55.495Z,66.67
2022-10-03T14:44:43.866Z,66.20
2022-10-03T14:47:18.578Z,64.63
2022-10-03T14:49:59.118Z,64.41
2022-10-03T14:52:28.937Z,64.90
2022-10-03T14:55:07.625Z,65.96
2022-10-03T14:58:06.054Z,66.85
2022-10-03T15:00:51.308Z,66.64
2022-10-03T15:03:33.640Z,65.51
2022-10-03T15:06:33.309Z,65.39
2022-10-03T15:09:02.733Z,66.12
2022-10-03T15:11:32.842Z,66.87
2022-10-03T15:14:02.921Z,67.66
2022-10-03T15:16:34.730Z,67.52
2022-10-03T15:19:09.409Z,66.00
2022-10-03T15:21:38.275Z,65.77
2022-10-03T15:24:15.032Z,66.61
2022-10-03T15:26:42.902Z,67.15
2022-10-03T15:29:13.222Z,68.02
2022-10-03T15:31:43.976Z,67.83
2022-10-03T15:34:20.734Z,66.24
2022-10-03T15:36:54.304Z,65.94
2022-10-03T15:39:25.216Z,66.20
2022-10-03T15:42:08.217Z,67.19
2022-10-03T15:45:06.869Z,68.03
2022-10-03T15:47:40.198Z,68.50
2022-10-03T15:50:57.009Z,68.15
2022-10-03T15:53:40.803Z,66.43
2022-10-03T15:56:15.438Z,66.08
2022-10-03T15:58:55.210Z,66.71
2022-10-03T16:01:58.823Z,67.76
2022-10-03T16:04:57.262Z,68.55
2022-10-03T16:07:58.572Z,67.48
2022-10-03T16:10:56.074Z,66.45
2022-10-03T16:13:40.949Z,66.79
2022-10-03T16:16:18.293Z,67.25
2022-10-03T16:19:20.401Z,68.10
2022-10-03T16:21:57.567Z,69.03
2022-10-03T16:24:41.078Z,68.28
2022-10-03T16:27:52.539Z,66.78
2022-10-03T16:30:31.714Z,66.91
2022-10-03T16:33:38.129Z,67.68
2022-10-03T16:36:07.557Z,68.64
2022-10-03T16:39:01.701Z,69.03
2022-10-03T16:41:35.269Z,68.19
2022-10-03T16:44:04.929Z,66.72
2022-10-03T16:46:45.164Z,66.67
2022-10-03T16:49:45.059Z,66.96
2022-10-03T16:52:15.962Z,67.72
2022-10-03T16:54:44.004Z,68.18
2022-10-03T16:57:22.112Z,67.65
2022-10-03T16:59:52.519Z,66.25
2022-10-03T17:02:27.105Z,66.42
2022-10-03T17:05:04.489Z,66.88
2022-10-03T17:07:59.986Z,67.40
2022-10-03T17:10:40.913Z,68.28
2022-10-03T17:13:16.762Z,67.31
2022-10-03T17:16:18.405Z,65.68
2022-10-03T17:19:46.397Z,65.94
2022-10-03T17:22:38.053Z,66.93
2022-10-03T17:25:40.517Z,67.52
2022-10-03T17:28:15.910Z,68.41
2022-10-03T17:30:48.424Z,67.37
2022-10-03T17:33:32.613Z,65.44
2022-10-03T17:36:34.029Z,65.28
2022-10-03T17:39:26.039Z,65.49
2022-10-03T17:43:45.799Z,67.45
2022-10-03T17:46:20.084Z,67.30
2022-10-03T17:49:03.272Z,65.68
2022-10-03T17:51:39.494Z,65.51
2022-10-03T17:54:16.497Z,65.74
2022-10-03T17:56:55.599Z,66.64
2022-10-03T17:59:28.426Z,67.52
2022-10-03T18:01:59.220Z,67.40
2022-10-03T18:04:34.906Z,66.10
2022-10-03T18:07:12.762Z,65.51
2022-10-03T18:09:48.493Z,66.00
2022-10-03T18:12:43.728Z,66.72
2022-10-03T18:15:35.663Z,67.87
2022-10-03T18:18:34.425Z,67.23
2022-10-03T18:21:17.571Z,66.09
2022-10-03T18:23:55.070Z,66.02
2022-10-03T18:26:28.563Z,66.32
2022-10-03T18:29:25.198Z,66.96
2022-10-03T18:31:55.950Z,67.93
2022-10-03T18:35:05.318Z,67.54
2022-10-03T18:37:45.139Z,65.95
2022-10-03T18:40:30.834Z,65.92
2022-10-03T18:43:01.099Z,66.61
2022-10-03T18:45:30.857Z,66.95
2022-10-03T18:48:14.112Z,67.86
2022-10-03T18:50:54.473Z,67.75
2022-10-03T18:53:29.216Z,66.03
2022-10-03T18:56:02.668Z,65.59
2022-10-03T18:58:36.959Z,65.74
2022-10-03T19:01:17.491Z,66.66
2022-10-03T19:03:49.259Z,67.31
2022-10-03T19:06:21.498Z,67.72
2022-10-03T19:08:58.922Z,67.54
2022-10-03T19:11:30.245Z,65.97
2022-10-03T19:14:11.555Z,65.23
2022-10-03T19:17:14.342Z,65.77
2022-10-03T19:20:00.551Z,66.40
2022-10-03T19:22:32.850Z,66.70
2022-10-03T19:25:02.903Z,67.33
2022-10-03T19:27:48.238Z,67.14
2022-10-03T19:30:20.361Z,65.67
2022-10-03T19:32:55.096Z,65.46
2022-10-03T19:35:22.631Z,65.69
2022-10-03T19:38:13.226Z,65.97
2022-10-03T19:40:54.985Z,66.58
2022-10-03T19:43:39.194Z,67.30
2022-10-03T19:46:12.263Z,66.56
2022-10-03T19:48:54.754Z,65.36
2022-10-03T19:51:30.367Z,64.83
2022-10-03T19:53:57.869Z,65.40
2022-10-03T19:56:26.373Z,65.67
2022-10-03T19:59:06.741Z,66.44
2022-10-03T20:01:45.110Z,67.38
2022-10-03T20:04:13.807Z,67.33
2022-10-03T20:06:46.303Z,65.60
2022-10-03T20:09:24.919Z,65.06
2022-10-03T20:11:57.151Z,65.39
2022-10-03T20:14:27.987Z,65.77
2022-10-03T20:17:04.195Z,66.41
2022-10-03T20:19:54.934Z,67.22
2022-10-03T20:22:27.996Z,67.07
2022-10-03T20:25:02.051Z,65.53
2022-10-03T20:27:45.114Z,65.18
2022-10-03T20:30:44.048Z,65.61
2022-10-03T20:33:30.927Z,66.37
2022-10-03T20:36:06.740Z,67.21
2022-10-03T20:38:48.291Z,67.64
2022-10-03T20:41:37.831Z,67.46
2022-10-03T20:44:37.760Z,65.57
2022-10-03T20:47:33.338Z,65.26
2022-10-03T20:50:07.542Z,66.00
2022-10-03T20:52:34.814Z,66.61
2022-10-03T20:55:06.001Z,67.02
2022-10-03T20:57:57.129Z,66.99
2022-10-03T21:00:27.483Z,65.82
2022-10-03T21:02:56.631Z,65.35
2022-10-03T21:05:35.283Z,65.80
2022-10-03T21:08:16.106Z,66.15
2022-10-03T21:10:55.392Z,67.15
2022-10-03T21:13:33.819Z,68.08
2022-10-03T21:16:04.005Z,67.29
2022-10-03T21:18:34.371Z,65.54
2022-10-03T21:21:08.036Z,65.24
2022-10-03T21:23:57.651Z,65.54
2022-10-03T21:26:26.297Z,66.08
2022-10-03T21:29:36.021Z,66.68
2022-10-03T21:32:31.552Z,67.88
2022-10-03T21:35:33.288Z,66.44
2022-10-03T21:38:19.938Z,65.18
2022-10-03T21:40:59.994Z,64.75
2022-10-03T21:43:54.976Z,65.37
2022-10-03T21:46:54.245Z,66.72
2022-10-03T21:49:47.813Z,67.16
2022-10-03T21:52:38.345Z,66.98
2022-10-03T21:55:50.786Z,65.31
2022-10-03T21:58:25.681Z,65.38
2022-10-03T22:00:56.200Z,65.97
2022-10-03T22:03:26.609Z,66.64
2022-10-03T22:06:14.306Z,67.08
2022-10-03T22:08:51.137Z,66.78
2022-10-03T22:11:56.499Z,65.33
2022-10-03T22:14:55.261Z,65.33
2022-10-03T22:17:56.789Z,65.19
2022-10-03T22:20:26.337Z,66.44
2022-10-03T22:23:33.417Z,67.07
2022-10-03T22:26:22.068Z,66.79
2022-10-03T22:29:22.071Z,65.39
2022-10-03T22:32:00.179Z,65.03
2022-10-03T22:34:56.293Z,65.54
2022-10-03T22:37:23.670Z,66.45
2022-10-03T22:39:51.336Z,67.39
2022-10-03T22:42:18.925Z,67.28
2022-10-03T22:44:50.256Z,65.67
2022-10-03T22:47:29.839Z,65.33
2022-10-03T22:49:59.221Z,65.11
2022-10-03T22:52:32.176Z,66.00
2022-10-03T22:54:59.821Z,66.32
2022-10-03T22:57:27.657Z,67.16
2022-10-03T23:00:01.198Z,67.04
2022-10-03T23:02:35.543Z,65.63
2022-10-03T23:05:05.017Z,65.35
2022-10-03T23:07:55.939Z,65.61
2022-10-03T23:10:29.346Z,66.37
2022-10-03T23:13:41.210Z,66.83
2022-10-03T23:16:33.161Z,67.53
2022-10-03T23:19:18.177Z,66.56
2022-10-03T23:21:51.714Z,65.16
2022-10-03T23:24:45.044Z,64.84
2022-10-03T23:27:40.028Z,65.39
2022-10-03T23:30:43.979Z,66.17
2022-10-03T23:33:36.390Z,66.59
2022-10-03T23:36:06.000Z,67.35
2022-10-03T23:38:35.005Z,66.92
2022-10-03T23:41:06.552Z,65.06
2022-10-03T23:43:57.841Z,64.71
2022-10-03T23:46:30.035Z,64.66
2022-10-03T23:49:02.072Z,65.29
2022-10-03T23:51:48.456Z,66.00
2022-10-03T23:54:16.190Z,66.80
2022-10-03T23:56:51.777Z,66.71
2022-10-03T23:59:23.787Z,65.10
